createdAt,value
2019-04-21T00:01:16.554Z,43.50
2019-04-21T00:03:52.110Z,43.70
2019-04-21T00:06:36.746Z,43.80
2019-04-21T00:09:11.528Z,44.50
2019-04-21T00:11:41.114Z,44.20
2019-04-21T00:14:03.743Z,44.00
2019-04-21T00:16:32.129Z,44.10
2019-04-21T00:19:03.359Z,44.10
2019-04-21T00:21:36.497Z,44.30
2019-04-21T00:24:26.538Z,44.60
2019-04-21T00:27:04.208Z,44.80
2019-04-21T00:29:40.999Z,44.80
2019-04-21T00:32:03.381Z,45.30
2019-04-21T00:34:19.448Z,45.40
2019-04-21T00:37:01.210Z,45.40
2019-04-21T00:39:49.059Z,45.50
2019-04-21T00:42:12.910Z,45.20
2019-04-21T00:44:33.258Z,45.60
2019-04-21T00:47:08.502Z,45.40
2019-04-21T00:49:42.734Z,45.30
2019-04-21T00:55:21.815Z,45.60
2019-04-21T00:57:54.766Z,45.60
2019-04-21T01:00:18.672Z,46.10
2019-04-21T01:02:52.533Z,45.50
2019-04-21T01:05:35.249Z,45.70
2019-04-21T01:07:48.250Z,45.70
2019-04-21T01:10:14.416Z,45.60
2019-04-21T01:13:13.948Z,45.60
2019-04-21T01:15:30.605Z,45.70
2019-04-21T01:17:54.639Z,45.80
2019-04-21T01:20:16.464Z,45.90
2019-04-21T01:22:37.653Z,46.10
2019-04-21T01:25:17.523Z,46.30
2019-04-21T01:27:53.690Z,46.50
2019-04-21T01:30:34.616Z,46.60
2019-04-21T01:33:07.761Z,46.70
2019-04-21T01:35:40.259Z,46.50
2019-04-21T01:38:08.156Z,46.40
2019-04-21T01:40:40.903Z,46.50
2019-04-21T01:43:07.730Z,46.60
2019-04-21T01:45:37.651Z,46.50
2019-04-21T01:48:10.350Z,46.60
2019-04-21T01:50:41.156Z,46.60
2019-04-21T01:53:25.584Z,46.80
2019-04-21T01:55:54.377Z,46.70
2019-04-21T01:58:34.161Z,46.90
2019-04-21T02:01:08.687Z,47.00
2019-04-21T02:03:53.190Z,47.10
2019-04-21T02:06:21.379Z,47.20
2019-04-21T02:08:49.311Z,47.90
2019-04-21T02:11:23.126Z,47.70
2019-04-21T02:14:02.013Z,47.80
2019-04-21T02:16:23.884Z,47.40
2019-04-21T02:18:52.591Z,47.40
2019-04-21T02:21:22.951Z,47.60
2019-04-21T02:24:01.907Z,47.70
2019-04-21T02:26:28.552Z,47.80
2019-04-21T02:29:00.202Z,47.50
2019-04-21T02:34:25.900Z,47.40
2019-04-21T02:39:23.152Z,47.60
2019-04-21T02:44:24.341Z,47.60
2019-04-21T02:46:42.198Z,47.50
2019-04-21T02:59:33.786Z,48.00
2019-04-21T03:02:25.739Z,48.50
2019-04-21T03:05:11.683Z,48.70
2019-04-21T03:07:31.878Z,48.80
2019-04-21T03:10:10.762Z,48.50
2019-04-21T03:12:38.625Z,48.80
2019-04-21T03:15:31.556Z,48.90
2019-04-21T03:20:17.422Z,49.30
2019-04-21T03:23:01.434Z,49.50
2019-04-21T03:25:33.181Z,49.70
2019-04-21T03:27:57.255Z,49.80
2019-04-21T03:30:52.927Z,49.70
2019-04-21T03:37:52.886Z,50.10
2019-04-21T03:40:20.199Z,50.30
2019-04-21T03:43:01.842Z,50.00
2019-04-21T03:45:36.918Z,49.60
2019-04-21T03:48:01.504Z,50.20
2019-04-21T03:50:39.700Z,49.60
2019-04-21T03:53:03.530Z,49.80
2019-04-21T04:00:49.930Z,50.10
2019-04-21T04:08:44.712Z,50.10
2019-04-21T04:16:05.965Z,50.00
2019-04-21T04:18:51.190Z,50.10
2019-04-21T04:21:13.090Z,49.80
2019-04-21T04:23:47.291Z,49.90
2019-04-21T04:26:13.075Z,49.90
2019-04-21T04:31:27.778Z,49.90
2019-04-21T04:34:04.503Z,49.90
2019-04-21T04:36:43.047Z,49.80
2019-04-21T04:39:22.532Z,50.00
2019-04-21T04:41:33.162Z,50.00
2019-04-21T04:44:04.895Z,50.30
2019-04-21T04:46:33.360Z,50.20
2019-04-21T04:49:11.011Z,50.20
2019-04-21T04:51:48.403Z,50.60
2019-04-21T04:54:06.265Z,50.30
2019-04-21T04:56:40.454Z,50.00
2019-04-21T04:59:26.083Z,49.60
2019-04-21T05:01:46.009Z,49.70
2019-04-21T05:04:16.352Z,50.00
2019-04-21T05:09:23.461Z,49.50
2019-04-21T05:16:48.399Z,49.10
2019-04-21T05:19:16.159Z,49.40
2019-04-21T05:21:48.061Z,49.30
2019-04-21T05:24:07.496Z,49.30
2019-04-21T05:26:37.100Z,49.50
2019-04-21T05:29:05.218Z,49.60
2019-04-21T05:31:50.905Z,50.40
2019-04-21T05:34:27.671Z,50.80
2019-04-21T05:37:01.349Z,50.80
2019-04-21T05:39:29.651Z,50.70
2019-04-21T05:41:53.763Z,50.70
2019-04-21T05:44:58.822Z,50.20
2019-04-21T05:47:20.759Z,49.90
2019-04-21T05:49:38.783Z,50.50
2019-04-21T05:52:12.079Z,50.20
2019-04-21T05:54:52.943Z,50.00
2019-04-21T05:57:18.938Z,50.10
2019-04-21T05:59:49.106Z,49.60
2019-04-21T06:10:07.253Z,49.50
2019-04-21T06:12:29.893Z,49.90
2019-04-21T06:15:13.823Z,50.30
2019-04-21T06:20:01.765Z,49.50
2019-04-21T06:22:28.937Z,49.00
2019-04-21T06:27:40.375Z,49.10
2019-04-21T06:30:04.168Z,49.40
2019-04-21T06:32:47.066Z,49.30
2019-04-21T06:37:59.864Z,48.40
2019-04-21T06:40:40.673Z,48.00
2019-04-21T06:43:11.361Z,48.00
2019-04-21T06:45:34.948Z,47.90
2019-04-21T06:48:04.177Z,47.10
2019-04-21T06:50:41.220Z,47.60
2019-04-21T06:53:08.811Z,45.70
2019-04-21T06:55:37.813Z,45.30
2019-04-21T06:58:13.165Z,45.20
2019-04-21T07:00:38.459Z,45.00
2019-04-21T07:03:19.298Z,45.20
2019-04-21T07:05:49.000Z,45.70
2019-04-21T07:08:28.825Z,46.00
2019-04-21T07:10:43.443Z,45.90
2019-04-21T07:13:14.228Z,45.00
2019-04-21T07:15:49.926Z,45.00
2019-04-21T07:18:23.020Z,44.80
2019-04-21T07:20:56.594Z,44.80
2019-04-21T07:23:26.821Z,44.60
2019-04-21T07:25:51.437Z,44.80
2019-04-21T07:28:25.454Z,45.60
2019-04-21T07:30:59.495Z,45.20
2019-04-21T07:33:52.309Z,45.20
2019-04-21T07:36:03.760Z,45.10
2019-04-21T07:38:27.442Z,45.20
2019-04-21T07:40:58.811Z,44.80
2019-04-21T07:43:31.559Z,45.10
2019-04-21T07:45:58.142Z,44.90
2019-04-21T07:48:40.213Z,44.80
2019-04-21T07:51:25.177Z,45.10
2019-04-21T07:54:08.666Z,45.00
2019-04-21T07:56:17.837Z,44.80
2019-04-21T07:59:02.268Z,44.70
2019-04-21T08:01:42.397Z,46.00
2019-04-21T08:04:15.853Z,45.60
2019-04-21T08:06:40.373Z,45.10
2019-04-21T08:09:08.964Z,44.40
2019-04-21T08:11:36.750Z,44.20
2019-04-21T08:14:07.133Z,44.10
2019-04-21T08:16:46.124Z,43.60
2019-04-21T08:19:13.063Z,43.70
2019-04-21T08:21:54.102Z,43.80
2019-04-21T08:24:15.019Z,43.30
2019-04-21T08:26:51.509Z,43.20
2019-04-21T08:29:25.715Z,43.30
2019-04-21T08:31:56.538Z,42.90
2019-04-21T08:34:21.482Z,43.00
2019-04-21T08:36:57.478Z,43.60
2019-04-21T08:39:28.895Z,42.90
2019-04-21T08:41:58.965Z,42.90
2019-04-21T08:44:35.261Z,43.30
2019-04-21T08:47:07.749Z,43.40
2019-04-21T08:49:47.987Z,43.20
2019-04-21T08:52:33.155Z,43.30
2019-04-21T08:54:55.712Z,43.20
2019-04-21T08:57:35.691Z,42.80
2019-04-21T09:00:12.509Z,42.30
2019-04-21T09:02:40.425Z,42.30
2019-04-21T09:05:15.433Z,42.60
2019-04-21T09:07:49.577Z,42.50
2019-04-21T09:10:09.538Z,42.90
2019-04-21T09:12:43.239Z,42.60
2019-04-21T09:15:13.874Z,42.70
2019-04-21T09:17:41.093Z,42.50
2019-04-21T09:20:26.492Z,43.20
2019-04-21T09:22:47.811Z,43.00
2019-04-21T09:25:30.907Z,42.50
2019-04-21T09:27:46.776Z,43.80
2019-04-21T09:30:06.947Z,44.00
2019-04-21T09:32:38.559Z,43.80
2019-04-21T09:35:12.428Z,44.10
2019-04-21T09:37:49.544Z,43.40
2019-04-21T09:40:13.442Z,42.30
2019-04-21T09:42:53.183Z,43.00
2019-04-21T09:45:14.383Z,42.50
2019-04-21T09:47:56.713Z,41.90
2019-04-21T09:50:17.492Z,41.90
2019-04-21T09:52:54.510Z,41.70
2019-04-21T09:55:22.915Z,41.90
2019-04-21T09:57:54.003Z,41.50
2019-04-21T10:00:26.546Z,41.00
2019-04-21T10:03:00.599Z,41.00
2019-04-21T10:05:25.185Z,40.40
2019-04-21T10:07:55.310Z,39.20
2019-04-21T10:10:25.285Z,40.20
2019-04-21T10:12:56.276Z,38.80
2019-04-21T10:15:27.849Z,38.90
2019-04-21T10:18:00.454Z,39.50
2019-04-21T10:20:30.885Z,39.20
2019-04-21T10:23:00.686Z,38.80
2019-04-21T10:25:30.688Z,38.70
2019-04-21T10:28:01.285Z,38.50
2019-04-21T10:30:31.009Z,38.60
2019-04-21T10:33:00.766Z,37.70
2019-04-21T10:35:31.086Z,36.60
2019-04-21T10:38:12.900Z,38.50
2019-04-21T10:40:35.238Z,38.70
2019-04-21T10:43:04.005Z,38.70
2019-04-21T10:45:34.895Z,38.70
2019-04-21T10:48:05.162Z,38.10
2019-04-21T10:50:34.954Z,37.20
2019-04-21T10:53:07.031Z,36.80
2019-04-21T10:55:55.904Z,37.60
2019-04-21T10:58:24.897Z,38.20
2019-04-21T11:01:00.039Z,37.70
2019-04-21T11:03:35.265Z,35.60
2019-04-21T11:06:06.692Z,37.20
2019-04-21T11:08:41.489Z,37.60
2019-04-21T11:11:08.001Z,36.60
2019-04-21T11:13:40.819Z,36.60
2019-04-21T11:16:11.043Z,36.20
2019-04-21T11:18:42.137Z,36.00
2019-04-21T11:21:13.116Z,36.20
2019-04-21T11:23:43.855Z,35.50
2019-04-21T11:26:14.002Z,35.00
2019-04-21T11:28:45.236Z,33.50
2019-04-21T11:31:15.433Z,34.00
2019-04-21T11:33:45.281Z,34.30
2019-04-21T11:36:15.585Z,33.20
2019-04-21T11:39:06.135Z,32.40
2019-04-21T11:41:21.700Z,33.40
2019-04-21T11:43:52.991Z,34.10
2019-04-21T11:46:22.936Z,35.00
2019-04-21T11:48:52.632Z,35.30
2019-04-21T11:51:22.806Z,32.10
2019-04-21T11:53:52.891Z,31.50
2019-04-21T11:56:23.161Z,31.20
2019-04-21T11:58:54.076Z,32.40
2019-04-21T12:01:23.799Z,32.30
2019-04-21T12:03:53.814Z,31.90
2019-04-21T12:06:32.234Z,31.70
2019-04-21T12:08:58.114Z,31.60
2019-04-21T12:11:27.278Z,31.70
2019-04-21T12:13:58.282Z,30.90
2019-04-21T12:16:28.842Z,31.70
2019-04-21T12:18:58.858Z,30.40
2019-04-21T12:21:39.092Z,29.40
2019-04-21T12:24:00.703Z,29.20
2019-04-21T12:26:31.816Z,28.90
2019-04-21T12:29:01.849Z,30.40
2019-04-21T12:31:39.286Z,30.70
2019-04-21T12:34:11.953Z,29.50
2019-04-21T12:36:42.114Z,28.30
2019-04-21T12:39:14.900Z,29.00
2019-04-21T12:41:44.675Z,29.40
2019-04-21T12:44:14.871Z,29.40
2019-04-21T12:46:45.592Z,29.80
2019-04-21T12:49:15.922Z,28.30
2019-04-21T12:51:46.101Z,27.50
2019-04-21T12:54:15.878Z,28.00
2019-04-21T12:56:45.673Z,29.30
2019-04-21T12:59:15.277Z,29.40
2019-04-21T13:01:45.263Z,29.40
2019-04-21T13:04:15.592Z,29.50
2019-04-21T13:06:45.723Z,27.50
2019-04-21T13:09:18.722Z,27.40
2019-04-21T13:11:46.995Z,27.10
2019-04-21T13:14:17.759Z,27.80
2019-04-21T13:16:47.842Z,27.30
2019-04-21T13:19:17.806Z,26.70
2019-04-21T13:21:47.902Z,26.40
2019-04-21T13:24:17.850Z,26.60
2019-04-21T13:26:53.576Z,26.80
2019-04-21T13:29:18.817Z,26.70
2019-04-21T13:31:48.354Z,26.80
2019-04-21T13:34:18.154Z,26.10
2019-04-21T13:36:49.718Z,26.00
2019-04-21T13:42:06.088Z,25.70
2019-04-21T13:44:26.695Z,25.20
2019-04-21T13:46:56.619Z,24.70
2019-04-21T13:49:27.368Z,25.20
2019-04-21T13:51:57.102Z,26.40
2019-04-21T13:54:33.719Z,27.30
2019-04-21T13:57:04.779Z,27.90
2019-04-21T13:59:36.188Z,28.10
2019-04-21T14:02:06.894Z,26.90
2019-04-21T14:04:37.861Z,26.50
2019-04-21T14:07:08.224Z,25.20
2019-04-21T14:09:48.963Z,24.70
2019-04-21T14:12:09.655Z,25.40
2019-04-21T14:14:39.599Z,25.30
2019-04-21T14:17:09.322Z,24.20
2019-04-21T14:19:39.426Z,24.10
2019-04-21T14:22:11.592Z,23.90
2019-04-21T14:24:41.665Z,24.40
2019-04-21T14:27:12.171Z,24.80
2019-04-21T14:29:41.948Z,24.90
2019-04-21T14:32:11.542Z,25.60
2019-04-21T14:34:41.962Z,25.30
2019-04-21T14:37:13.010Z,24.80
2019-04-21T14:39:52.827Z,24.50
2019-04-21T14:42:14.144Z,25.00
2019-04-21T14:44:45.096Z,25.10
2019-04-21T14:47:16.649Z,25.00
2019-04-21T14:49:51.046Z,24.50
2019-04-21T14:52:23.131Z,24.40
2019-04-21T14:54:54.600Z,24.30
2019-04-21T14:57:25.151Z,24.10
2019-04-21T14:59:55.182Z,24.30
2019-04-21T15:02:25.591Z,24.40
2019-04-21T15:04:55.695Z,24.10
2019-04-21T15:07:25.514Z,23.80
2019-04-21T15:10:04.425Z,23.80
2019-04-21T15:12:27.740Z,24.30
2019-04-21T15:14:58.168Z,24.40
2019-04-21T15:17:29.325Z,24.20
2019-04-21T15:20:04.625Z,24.40
2019-04-21T15:22:30.485Z,24.40
2019-04-21T15:25:00.592Z,23.90
2019-04-21T15:27:30.760Z,24.20
2019-04-21T15:30:00.651Z,24.40
2019-04-21T15:32:30.649Z,24.70
2019-04-21T15:35:00.446Z,24.30
2019-04-21T15:37:31.555Z,24.80
2019-04-21T15:40:12.262Z,24.70
2019-04-21T15:42:32.621Z,24.70
2019-04-21T15:45:02.929Z,24.30
2019-04-21T15:47:33.783Z,24.30
2019-04-21T15:50:10.179Z,24.50
2019-04-21T15:52:37.873Z,24.70
2019-04-21T15:55:10.622Z,24.70
2019-04-21T15:57:58.521Z,25.30
2019-04-21T16:00:30.979Z,24.80
2019-04-21T16:03:00.682Z,24.80
2019-04-21T16:05:30.849Z,24.80
2019-04-21T16:08:00.739Z,24.70
2019-04-21T16:10:39.495Z,24.90
2019-04-21T16:13:01.612Z,24.70
2019-04-21T16:15:32.493Z,24.90
2019-04-21T16:18:03.591Z,25.00
2019-04-21T16:20:33.288Z,25.30
2019-04-21T16:23:04.462Z,25.00
2019-04-21T16:25:36.964Z,25.10
2019-04-21T16:28:07.067Z,25.10
2019-04-21T16:30:38.115Z,24.80
2019-04-21T16:33:08.255Z,24.90
2019-04-21T16:35:37.993Z,25.10
2019-04-21T16:38:07.894Z,25.40
2019-04-21T16:40:48.159Z,25.00
2019-04-21T16:43:10.082Z,24.90
2019-04-21T16:45:41.004Z,24.70
2019-04-21T16:48:10.694Z,24.70
2019-04-21T16:50:41.500Z,24.40
2019-04-21T16:53:22.078Z,23.90
2019-04-21T16:56:06.999Z,23.30
2019-04-21T16:58:38.822Z,22.90
2019-04-21T17:01:14.907Z,22.40
2019-04-21T17:03:42.437Z,22.30
2019-04-21T17:06:13.206Z,21.20
2019-04-21T17:08:43.134Z,20.80
2019-04-21T17:11:19.269Z,20.50
2019-04-21T17:13:45.675Z,20.70
2019-04-21T17:16:43.450Z,20.70
2019-04-21T17:18:58.781Z,21.30
2019-04-21T17:21:17.660Z,22.50
2019-04-21T17:23:48.243Z,23.20
2019-04-21T17:26:19.221Z,22.80
2019-04-21T17:28:49.005Z,22.40
2019-04-21T17:31:18.577Z,22.30
2019-04-21T17:33:51.959Z,21.10
2019-04-21T17:36:19.412Z,20.50
2019-04-21T17:38:50.126Z,20.70
2019-04-21T17:41:27.833Z,21.40
2019-04-21T17:43:52.510Z,22.10
2019-04-21T17:46:30.489Z,22.70
2019-04-21T17:48:54.679Z,23.00
2019-04-21T17:51:32.009Z,23.20
2019-04-21T17:54:15.483Z,23.50
2019-04-21T17:56:59.604Z,23.90
2019-04-21T17:59:43.064Z,24.10
2019-04-21T18:02:02.207Z,24.70
2019-04-21T18:04:31.043Z,24.60
2019-04-21T18:06:56.464Z,25.20
2019-04-21T18:09:45.452Z,25.70
2019-04-21T18:12:07.962Z,25.50
2019-04-21T18:14:22.210Z,25.90
2019-04-21T18:16:53.392Z,26.40
2019-04-21T18:19:26.782Z,26.70
2019-04-21T18:21:59.526Z,26.90
2019-04-21T18:24:38.949Z,27.00
2019-04-21T18:27:04.289Z,26.90
2019-04-21T18:29:33.925Z,27.20
2019-04-21T18:32:04.052Z,27.50
2019-04-21T18:34:44.031Z,27.80
2019-04-21T18:37:18.564Z,28.00
2019-04-21T18:39:53.624Z,28.20
2019-04-21T18:42:46.501Z,28.50
2019-04-21T18:45:57.121Z,28.90
2019-04-21T18:48:12.483Z,28.90
2019-04-21T18:50:49.008Z,29.20
2019-04-21T18:53:44.767Z,29.30
2019-04-21T18:56:05.799Z,29.50
2019-04-21T18:58:32.667Z,29.70
2019-04-21T19:01:07.614Z,30.00
2019-04-21T19:03:39.936Z,30.00
2019-04-21T19:06:11.494Z,30.00
2019-04-21T19:08:59.219Z,30.10
2019-04-21T19:11:25.078Z,30.10
2019-04-21T19:14:20.997Z,30.10
2019-04-21T19:16:42.902Z,30.00
2019-04-21T19:19:35.203Z,30.50
2019-04-21T19:21:40.369Z,30.10
2019-04-21T19:24:41.211Z,30.10
2019-04-21T19:26:52.118Z,30.00
2019-04-21T19:29:23.981Z,30.20
2019-04-21T19:31:49.724Z,30.20
2019-04-21T19:34:08.364Z,30.40
2019-04-21T19:36:32.678Z,30.30
2019-04-21T19:39:10.640Z,30.20
2019-04-21T19:41:47.238Z,30.60
2019-04-21T19:44:22.141Z,30.70
2019-04-21T19:46:55.993Z,31.40
2019-04-21T19:49:27.110Z,32.50
2019-04-21T19:51:50.517Z,31.40
2019-04-21T19:54:18.726Z,32.10
2019-04-21T19:56:41.025Z,32.40
2019-04-21T19:59:11.868Z,32.80
2019-04-21T20:01:41.811Z,33.10
2019-04-21T20:04:12.459Z,32.80
2019-04-21T20:06:54.625Z,33.60
2019-04-21T20:09:32.435Z,33.80
2019-04-21T20:11:58.165Z,33.80
2019-04-21T20:14:46.693Z,32.80
2019-04-21T20:16:59.273Z,32.70
2019-04-21T20:19:19.684Z,32.90
2019-04-21T20:21:51.230Z,32.70
2019-04-21T20:24:26.774Z,33.10
2019-04-21T20:26:59.963Z,33.50
2019-04-21T20:29:44.650Z,33.40
2019-04-21T20:32:22.424Z,33.40
2019-04-21T20:34:49.041Z,33.60
2019-04-21T20:37:14.800Z,34.40
2019-04-21T20:39:41.748Z,34.40
2019-04-21T20:42:19.377Z,34.60
2019-04-21T20:44:53.097Z,34.20
2019-04-21T20:47:11.230Z,33.40
2019-04-21T20:49:41.532Z,33.20
2019-04-21T20:52:28.143Z,33.40
2019-04-21T20:54:48.212Z,33.40
2019-04-21T20:57:24.172Z,33.60
2019-04-21T20:59:50.904Z,33.90
2019-04-21T21:02:30.095Z,33.90
2019-04-21T21:04:46.925Z,33.80
2019-04-21T21:07:40.481Z,33.80
2019-04-21T21:10:06.225Z,33.80
2019-04-21T21:12:40.745Z,33.60
2019-04-21T21:14:57.778Z,34.00
2019-04-21T21:17:49.941Z,34.10
2019-04-21T21:20:07.908Z,34.30
2019-04-21T21:22:36.724Z,34.40
2019-04-21T21:25:11.562Z,34.20
2019-04-21T21:27:36.809Z,34.50
2019-04-21T21:30:08.302Z,34.40
2019-04-21T21:32:38.544Z,34.30
2019-04-21T21:35:13.207Z,34.70
2019-04-21T21:37:43.937Z,35.00
2019-04-21T21:40:18.024Z,35.00
2019-04-21T21:42:34.258Z,35.40
2019-04-21T21:45:07.748Z,35.40
2019-04-21T21:47:47.574Z,35.40
2019-04-21T21:50:11.079Z,35.10
2019-04-21T21:52:45.195Z,34.80
2019-04-21T21:55:07.736Z,34.60
2019-04-21T21:57:44.563Z,34.40
2019-04-21T22:00:12.410Z,34.00
2019-04-21T22:02:47.612Z,33.40
2019-04-21T22:05:21.706Z,33.60
2019-04-21T22:07:44.792Z,33.50
2019-04-21T22:10:15.962Z,33.90
2019-04-21T22:12:56.812Z,34.10
2019-04-21T22:15:22.607Z,34.20
2019-04-21T22:18:12.108Z,34.20
2019-04-21T22:20:37.817Z,34.00
2019-04-21T22:22:58.431Z,34.20
2019-04-21T22:25:29.473Z,34.20
2019-04-21T22:27:55.653Z,34.40
2019-04-21T22:30:34.922Z,34.70
2019-04-21T22:33:04.477Z,34.80
2019-04-21T22:35:38.111Z,35.10
2019-04-21T22:38:14.996Z,36.10
2019-04-21T22:40:49.083Z,36.50
2019-04-21T22:43:11.920Z,36.60
2019-04-21T22:45:35.583Z,36.60
2019-04-21T22:48:12.427Z,35.80
2019-04-21T22:50:40.394Z,35.70
2019-04-21T22:53:12.367Z,36.70
2019-04-21T22:55:42.968Z,37.00
2019-04-21T22:58:15.915Z,37.50
2019-04-21T23:00:51.185Z,37.90
2019-04-21T23:03:21.441Z,37.20
2019-04-21T23:05:48.913Z,36.90
2019-04-21T23:08:22.497Z,37.00
2019-04-21T23:10:57.441Z,37.10
2019-04-21T23:13:23.500Z,36.70
2019-04-21T23:15:56.779Z,36.80
2019-04-21T23:18:36.428Z,36.80
2019-04-21T23:21:10.476Z,36.40
2019-04-21T23:23:44.099Z,36.40
2019-04-21T23:26:20.899Z,37.30
2019-04-21T23:28:55.761Z,37.30
2019-04-21T23:31:19.809Z,37.30
2019-04-21T23:33:31.438Z,38.20
2019-04-21T23:36:10.598Z,39.40
2019-04-21T23:38:37.525Z,40.10
2019-04-21T23:41:07.489Z,40.20
2019-04-21T23:43:35.446Z,40.80
2019-04-21T23:46:13.160Z,41.20
2019-04-21T23:48:56.212Z,41.50
2019-04-21T23:51:21.903Z,41.10
2019-04-21T23:53:39.745Z,41.60
2019-04-21T23:56:13.422Z,41.70
2019-04-21T23:58:45.819Z,42.00
